createdAt,value
2022-11-27T00:00:24.713Z,0.00
2022-11-27T00:01:24.737Z,0.00
2022-11-27T00:02:24.747Z,0.00
2022-11-27T00:03:24.791Z,0.00
2022-11-27T00:04:24.677Z,0.00
2022-11-27T00:05:24.665Z,0.00
2022-11-27T00:06:24.646Z,0.00
2022-11-27T00:07:24.721Z,0.00
2022-11-27T00:08:24.628Z,0.00
2022-11-27T00:09:24.612Z,0.00
2022-11-27T00:10:24.593Z,0.00
2022-11-27T00:11:24.600Z,0.00
2022-11-27T00:12:24.584Z,0.00
2022-11-27T00:13:24.596Z,0.00
2022-11-27T00:14:24.541Z,0.00
2022-11-27T00:15:24.530Z,0.00
2022-11-27T00:16:24.578Z,0.00
2022-11-27T00:17:24.515Z,0.00
2022-11-27T00:18:24.514Z,0.00
2022-11-27T00:19:24.501Z,0.00
2022-11-27T00:20:28.591Z,0.00
2022-11-27T00:21:25.465Z,0.00
2022-11-27T00:22:24.474Z,0.00
2022-11-27T00:23:24.453Z,0.00
2022-11-27T00:24:24.445Z,0.00
2022-11-27T00:25:24.420Z,0.00
2022-11-27T00:26:24.426Z,0.00
2022-11-27T00:27:24.407Z,0.00
2022-11-27T00:28:24.415Z,0.00
2022-11-27T00:29:24.368Z,0.00
2022-11-27T00:30:24.374Z,0.00
2022-11-27T00:31:24.409Z,0.00
2022-11-27T00:32:24.373Z,0.00
2022-11-27T00:33:24.323Z,0.00
2022-11-27T00:34:24.356Z,0.00
2022-11-27T00:35:24.298Z,0.00
2022-11-27T00:36:24.306Z,0.00
2022-11-27T00:37:24.281Z,0.00
2022-11-27T00:38:24.284Z,0.00
2022-11-27T00:39:24.270Z,0.00
2022-11-27T00:40:24.265Z,0.00
2022-11-27T00:41:24.241Z,0.00
2022-11-27T00:42:24.253Z,0.00
2022-11-27T00:43:24.213Z,0.00
2022-11-27T00:44:24.226Z,0.00
2022-11-27T00:45:24.213Z,0.00
2022-11-27T00:46:28.479Z,0.00
2022-11-27T00:47:25.163Z,0.00
2022-11-27T00:48:24.172Z,0.00
2022-11-27T00:49:24.154Z,0.00
2022-11-27T00:50:24.160Z,0.00
2022-11-27T00:51:24.127Z,0.00
2022-11-27T00:52:24.135Z,0.00
2022-11-27T00:53:24.096Z,0.00
2022-11-27T00:54:24.122Z,0.00
2022-11-27T00:55:24.087Z,0.00
2022-11-27T00:56:24.080Z,0.00
2022-11-27T00:57:24.045Z,0.00
2022-11-27T00:58:24.052Z,0.00
2022-11-27T00:59:24.024Z,0.00
2022-11-27T01:00:24.046Z,0.00
2022-11-27T01:01:24.186Z,0.00
2022-11-27T01:02:24.076Z,0.00
2022-11-27T01:03:23.984Z,0.00
2022-11-27T01:04:23.990Z,0.00
2022-11-27T01:05:23.973Z,0.00
2022-11-27T01:06:23.986Z,0.00
2022-11-27T01:07:23.992Z,0.00
2022-11-27T01:08:23.965Z,0.00
2022-11-27T01:09:23.937Z,0.00
2022-11-27T01:10:23.933Z,0.00
2022-11-27T01:11:23.910Z,0.00
2022-11-27T01:12:23.940Z,0.00
2022-11-27T01:13:23.876Z,0.00
2022-11-27T01:14:23.889Z,0.00
2022-11-27T01:15:23.859Z,0.00
2022-11-27T01:16:23.901Z,0.00
2022-11-27T01:17:23.856Z,0.00
2022-11-27T01:18:23.833Z,0.00
2022-11-27T01:19:23.802Z,0.00
2022-11-27T01:20:23.807Z,0.00
2022-11-27T01:21:23.787Z,0.00
2022-11-27T01:22:23.795Z,0.00
2022-11-27T01:23:23.744Z,0.00
2022-11-27T01:24:23.760Z,0.00
2022-11-27T01:25:26.964Z,0.00
2022-11-27T01:26:23.734Z,0.00
2022-11-27T01:27:23.735Z,0.00
2022-11-27T01:28:23.719Z,0.00
2022-11-27T01:29:23.690Z,0.00
2022-11-27T01:30:23.703Z,0.00
2022-11-27T01:31:23.712Z,0.00
2022-11-27T01:32:23.697Z,0.00
2022-11-27T01:33:23.639Z,0.00
2022-11-27T01:34:23.627Z,0.00
2022-11-27T01:35:23.608Z,0.00
2022-11-27T01:36:23.626Z,0.00
2022-11-27T01:37:23.586Z,0.00
2022-11-27T01:38:23.609Z,0.00
2022-11-27T01:39:23.588Z,0.00
2022-11-27T01:40:23.560Z,0.00
2022-11-27T01:41:23.546Z,0.00
2022-11-27T01:42:23.552Z,0.00
2022-11-27T01:43:23.514Z,0.00
2022-11-27T01:44:23.548Z,0.00
2022-11-27T01:45:23.496Z,0.00
2022-11-27T01:46:23.564Z,0.00
2022-11-27T01:47:23.470Z,0.00
2022-11-27T01:48:23.476Z,0.00
2022-11-27T01:49:23.463Z,0.00
2022-11-27T01:50:23.460Z,0.00
2022-11-27T01:51:30.478Z,0.00
2022-11-27T01:52:23.441Z,0.00
2022-11-27T01:53:23.424Z,0.00
2022-11-27T01:54:23.419Z,0.00
2022-11-27T01:55:23.407Z,0.00
2022-11-27T01:56:23.402Z,0.00
2022-11-27T01:57:23.359Z,0.00
2022-11-27T01:58:23.360Z,0.00
2022-11-27T01:59:23.349Z,0.00
2022-11-27T02:00:23.335Z,0.00
2022-11-27T02:01:23.338Z,0.00
2022-11-27T02:02:23.391Z,0.00
2022-11-27T02:03:23.394Z,0.00
2022-11-27T02:04:23.301Z,0.00
2022-11-27T02:05:23.316Z,0.00
2022-11-27T02:06:23.276Z,0.00
2022-11-27T02:07:23.330Z,0.00
2022-11-27T02:08:23.240Z,0.00
2022-11-27T02:09:23.211Z,0.00
2022-11-27T02:10:23.218Z,0.00
2022-11-27T02:11:23.224Z,0.00
2022-11-27T02:12:23.223Z,0.00
2022-11-27T02:13:23.178Z,0.00
2022-11-27T02:14:23.168Z,0.00
2022-11-27T02:15:23.138Z,0.00
2022-11-27T02:16:23.229Z,0.00
2022-11-27T02:17:23.145Z,0.00
2022-11-27T02:18:23.140Z,0.00
2022-11-27T02:19:23.108Z,0.00
2022-11-27T02:20:23.108Z,0.00
2022-11-27T02:21:23.100Z,0.00
2022-11-27T02:22:23.092Z,0.00
2022-11-27T02:23:23.050Z,0.00
2022-11-27T02:24:23.058Z,0.00
2022-11-27T02:25:28.149Z,0.00
2022-11-27T02:26:24.056Z,0.00
2022-11-27T02:27:23.003Z,0.00
2022-11-27T02:28:23.024Z,0.00
2022-11-27T02:29:22.989Z,0.00
2022-11-27T02:30:22.989Z,0.00
2022-11-27T02:31:22.985Z,0.00
2022-11-27T02:32:22.983Z,0.00
2022-11-27T02:33:22.942Z,0.00
2022-11-27T02:34:22.932Z,0.00
2022-11-27T02:35:22.912Z,0.00
2022-11-27T02:36:22.909Z,0.00
2022-11-27T02:37:22.899Z,0.00
2022-11-27T02:38:22.910Z,0.00
2022-11-27T02:39:22.873Z,0.00
2022-11-27T02:40:22.869Z,0.00
2022-11-27T02:41:22.830Z,0.00
2022-11-27T02:42:22.850Z,0.00
2022-11-27T02:43:22.875Z,0.00
2022-11-27T02:44:22.819Z,0.00
2022-11-27T02:45:22.792Z,0.00
2022-11-27T02:46:22.885Z,0.00
2022-11-27T02:47:22.759Z,0.00
2022-11-27T02:48:22.778Z,0.00
2022-11-27T02:49:22.758Z,0.00
2022-11-27T02:50:22.754Z,0.00
2022-11-27T02:51:22.715Z,0.00
2022-11-27T02:52:22.731Z,0.00
2022-11-27T02:53:22.706Z,0.00
2022-11-27T02:54:22.720Z,0.00
2022-11-27T02:55:22.668Z,0.00
2022-11-27T02:56:22.685Z,0.00
2022-11-27T02:57:22.647Z,0.00
2022-11-27T02:58:22.653Z,0.00
2022-11-27T02:59:22.639Z,0.00
2022-11-27T03:00:22.634Z,0.00
2022-11-27T03:01:22.698Z,0.00
2022-11-27T03:02:22.663Z,0.00
2022-11-27T03:03:22.576Z,0.00
2022-11-27T03:04:22.596Z,0.00
2022-11-27T03:05:22.559Z,0.00
2022-11-27T03:06:22.552Z,0.00
2022-11-27T03:07:22.649Z,0.00
2022-11-27T03:08:22.542Z,0.00
2022-11-27T03:09:22.529Z,0.00
2022-11-27T03:10:22.510Z,0.00
2022-11-27T03:11:22.485Z,0.00
2022-11-27T03:12:22.504Z,0.00
2022-11-27T03:13:22.460Z,0.00
2022-11-27T03:14:22.480Z,0.00
2022-11-27T03:15:22.456Z,0.00
2022-11-27T03:16:22.492Z,0.00
2022-11-27T03:17:22.422Z,0.00
2022-11-27T03:18:22.422Z,0.00
2022-11-27T03:19:22.388Z,0.00
2022-11-27T03:20:22.419Z,0.00
2022-11-27T03:21:22.368Z,0.00
2022-11-27T03:22:22.384Z,0.00
2022-11-27T03:23:22.353Z,0.00
2022-11-27T03:24:22.363Z,0.00
2022-11-27T03:25:22.331Z,0.00
2022-11-27T03:26:22.328Z,0.00
2022-11-27T03:27:22.302Z,0.00
2022-11-27T03:28:22.298Z,0.00
2022-11-27T03:29:22.270Z,0.00
2022-11-27T03:30:22.281Z,0.00
2022-11-27T03:31:22.322Z,0.00
2022-11-27T03:32:22.269Z,0.00
2022-11-27T03:33:22.244Z,0.00
2022-11-27T03:34:22.232Z,0.00
2022-11-27T03:35:22.233Z,0.00
2022-11-27T03:36:22.226Z,0.00
2022-11-27T03:37:22.187Z,0.00
2022-11-27T03:38:22.198Z,0.00
2022-11-27T03:39:22.182Z,0.00
2022-11-27T03:40:22.169Z,0.00
2022-11-27T03:41:22.150Z,0.00
2022-11-27T03:42:22.151Z,0.00
2022-11-27T03:43:22.122Z,0.00
2022-11-27T03:44:22.131Z,0.00
2022-11-27T03:45:22.109Z,0.00
2022-11-27T03:46:22.136Z,0.00
2022-11-27T03:47:22.114Z,0.00
2022-11-27T03:48:22.058Z,0.00
2022-11-27T03:49:22.056Z,0.00
2022-11-27T03:50:22.054Z,0.00
2022-11-27T03:51:22.034Z,0.00
2022-11-27T03:52:22.043Z,0.00
2022-11-27T03:53:21.988Z,0.00
2022-11-27T03:54:22.001Z,0.00
2022-11-27T03:55:21.973Z,0.00
2022-11-27T03:56:21.997Z,0.00
2022-11-27T03:57:21.952Z,0.00
2022-11-27T03:58:21.953Z,0.00
2022-11-27T03:59:21.923Z,0.00
2022-11-27T04:00:21.919Z,0.00
2022-11-27T04:01:21.966Z,0.00
2022-11-27T04:02:22.001Z,0.00
2022-11-27T04:03:21.878Z,0.00
2022-11-27T04:04:21.976Z,0.00
2022-11-27T04:05:21.851Z,0.00
2022-11-27T04:06:21.877Z,0.00
2022-11-27T04:07:21.904Z,0.00
2022-11-27T04:08:21.850Z,0.00
2022-11-27T04:09:21.815Z,0.00
2022-11-27T04:10:21.824Z,0.00
2022-11-27T04:11:21.777Z,0.00
2022-11-27T04:12:21.831Z,0.00
2022-11-27T04:13:21.756Z,0.00
2022-11-27T04:14:21.762Z,0.00
2022-11-27T04:15:21.728Z,0.00
2022-11-27T04:16:21.802Z,0.00
2022-11-27T04:17:21.719Z,0.00
2022-11-27T04:18:21.710Z,0.00
2022-11-27T04:19:21.686Z,0.00
2022-11-27T04:20:21.690Z,0.00
2022-11-27T04:21:21.662Z,0.00
2022-11-27T04:22:21.693Z,0.00
2022-11-27T04:23:21.644Z,0.00
2022-11-27T04:24:21.644Z,0.00
2022-11-27T04:25:21.622Z,0.00
2022-11-27T04:26:21.628Z,0.00
2022-11-27T04:27:21.598Z,0.00
2022-11-27T04:28:21.602Z,0.00
2022-11-27T04:29:21.585Z,0.00
2022-11-27T04:30:21.548Z,0.00
2022-11-27T04:31:21.607Z,0.00
2022-11-27T04:32:21.571Z,0.00
2022-11-27T04:33:21.538Z,0.00
2022-11-27T04:34:21.512Z,0.00
2022-11-27T04:35:21.512Z,0.00
2022-11-27T04:36:21.488Z,0.00
2022-11-27T04:37:21.526Z,0.00
2022-11-27T04:38:21.474Z,0.00
2022-11-27T04:39:21.473Z,0.00
2022-11-27T04:40:21.446Z,0.00
2022-11-27T04:41:21.449Z,0.00
2022-11-27T04:42:21.466Z,0.00
2022-11-27T04:43:21.417Z,0.00
2022-11-27T04:44:21.391Z,0.00
2022-11-27T04:45:21.405Z,0.00
2022-11-27T04:46:21.430Z,0.00
2022-11-27T04:47:21.371Z,0.00
2022-11-27T04:48:21.363Z,0.00
2022-11-27T04:49:21.370Z,0.00
2022-11-27T04:50:21.323Z,0.00
2022-11-27T04:51:21.326Z,0.00
2022-11-27T04:52:21.319Z,0.00
2022-11-27T04:53:21.315Z,0.00
2022-11-27T04:54:21.303Z,0.00
2022-11-27T04:55:21.292Z,0.00
2022-11-27T04:56:21.267Z,0.00
2022-11-27T04:57:21.275Z,0.00
2022-11-27T04:58:21.231Z,0.00
2022-11-27T04:59:21.245Z,0.00
2022-11-27T05:00:21.213Z,0.00
2022-11-27T05:01:21.231Z,0.00
2022-11-27T05:02:21.191Z,0.00
2022-11-27T05:03:21.258Z,0.00
2022-11-27T05:04:21.159Z,0.00
2022-11-27T05:05:21.171Z,0.00
2022-11-27T05:06:21.133Z,0.00
2022-11-27T05:07:21.182Z,0.00
2022-11-27T05:08:21.156Z,0.00
2022-11-27T05:09:21.156Z,0.00
2022-11-27T05:10:21.081Z,0.00
2022-11-27T05:11:21.092Z,0.00
2022-11-27T05:12:21.076Z,0.00
2022-11-27T05:13:21.079Z,0.00
2022-11-27T05:14:21.037Z,0.00
2022-11-27T05:15:21.065Z,0.00
2022-11-27T05:16:21.065Z,0.00
2022-11-27T05:17:21.022Z,0.00
2022-11-27T05:18:21.003Z,0.00
2022-11-27T05:19:20.992Z,0.00
2022-11-27T05:20:20.972Z,0.00
2022-11-27T05:21:21.102Z,0.00
2022-11-27T05:22:20.977Z,0.00
2022-11-27T05:23:20.962Z,0.00
2022-11-27T05:24:20.928Z,0.00
2022-11-27T05:25:20.932Z,0.00
2022-11-27T05:26:20.898Z,0.00
2022-11-27T05:27:20.915Z,0.00
2022-11-27T05:28:25.194Z,0.00
2022-11-27T05:29:21.882Z,0.00
2022-11-27T05:30:20.861Z,0.00
2022-11-27T05:31:20.931Z,0.00
2022-11-27T05:32:20.866Z,0.00
2022-11-27T05:33:20.833Z,0.00
2022-11-27T05:34:20.816Z,0.00
2022-11-27T05:35:20.810Z,0.00
2022-11-27T05:36:20.773Z,0.00
2022-11-27T05:37:20.805Z,0.00
2022-11-27T05:38:20.764Z,0.00
2022-11-27T05:39:20.763Z,0.00
2022-11-27T05:40:20.739Z,0.00
2022-11-27T05:41:20.758Z,0.00
2022-11-27T05:42:20.754Z,0.00
2022-11-27T05:43:20.711Z,0.00
2022-11-27T05:44:20.682Z,0.00
2022-11-27T05:45:20.690Z,0.00
2022-11-27T05:46:20.701Z,0.00
2022-11-27T05:47:20.675Z,0.00
2022-11-27T05:48:20.654Z,0.00
2022-11-27T05:49:20.644Z,0.00
2022-11-27T05:50:20.632Z,0.00
2022-11-27T05:51:20.644Z,0.00
2022-11-27T05:52:20.623Z,0.00
2022-11-27T05:53:20.612Z,0.00
2022-11-27T05:54:20.560Z,0.00
2022-11-27T05:55:20.573Z,0.00
2022-11-27T05:56:20.546Z,0.00
2022-11-27T05:57:20.581Z,0.00
2022-11-27T05:58:20.514Z,0.00
2022-11-27T05:59:20.548Z,0.00
2022-11-27T06:00:20.501Z,0.00
2022-11-27T06:01:20.503Z,0.00
2022-11-27T06:02:25.023Z,0.00
2022-11-27T06:03:21.543Z,0.00
2022-11-27T06:04:20.449Z,0.00
2022-11-27T06:05:20.457Z,0.00
2022-11-27T06:06:20.438Z,0.00
2022-11-27T06:07:20.492Z,0.00
2022-11-27T06:08:20.401Z,0.00
2022-11-27T06:09:20.435Z,0.00
2022-11-27T06:10:20.381Z,0.00
2022-11-27T06:11:20.406Z,0.00
2022-11-27T06:12:20.399Z,0.00
2022-11-27T06:13:20.352Z,0.00
2022-11-27T06:14:20.362Z,0.00
2022-11-27T06:15:20.350Z,0.00
2022-11-27T06:16:20.387Z,0.00
2022-11-27T06:17:20.313Z,0.00
2022-11-27T06:18:20.281Z,0.00
2022-11-27T06:19:20.311Z,0.00
2022-11-27T06:20:20.252Z,0.00
2022-11-27T06:21:20.285Z,0.00
2022-11-27T06:22:20.298Z,0.00
2022-11-27T06:23:20.235Z,0.00
2022-11-27T06:24:20.223Z,0.00
2022-11-27T06:25:20.244Z,0.00
2022-11-27T06:26:20.219Z,0.00
2022-11-27T06:27:20.191Z,0.00
2022-11-27T06:28:20.164Z,0.00
2022-11-27T06:29:20.162Z,0.00
2022-11-27T06:30:20.168Z,0.00
2022-11-27T06:31:20.191Z,0.00
2022-11-27T06:32:20.117Z,0.00
2022-11-27T06:33:20.121Z,0.00
2022-11-27T06:34:20.101Z,0.00
2022-11-27T06:35:20.105Z,0.00
2022-11-27T06:36:20.092Z,0.00
2022-11-27T06:37:20.087Z,0.00
2022-11-27T06:38:20.045Z,0.00
2022-11-27T06:39:20.050Z,0.00
2022-11-27T06:40:20.025Z,0.00
2022-11-27T06:41:20.036Z,0.00
2022-11-27T06:42:20.031Z,0.00
2022-11-27T06:43:20.008Z,0.00
2022-11-27T06:44:19.975Z,0.00
2022-11-27T06:45:19.982Z,0.00
2022-11-27T06:46:20.045Z,0.00
2022-11-27T06:47:19.993Z,0.00
2022-11-27T06:48:19.923Z,0.00
2022-11-27T06:49:19.935Z,0.00
2022-11-27T06:50:19.910Z,0.00
2022-11-27T06:51:19.917Z,0.00
2022-11-27T06:52:19.904Z,0.00
2022-11-27T06:53:19.890Z,0.00
2022-11-27T06:54:19.850Z,0.00
2022-11-27T06:55:19.862Z,0.00
2022-11-27T06:56:19.849Z,0.00
2022-11-27T06:57:19.842Z,0.00
2022-11-27T06:58:19.835Z,0.00
2022-11-27T06:59:19.817Z,0.00
2022-11-27T07:00:19.805Z,0.00
2022-11-27T07:01:19.887Z,0.00
2022-11-27T07:02:19.841Z,0.00
2022-11-27T07:03:19.776Z,0.00
2022-11-27T07:04:19.762Z,0.00
2022-11-27T07:05:19.744Z,0.00
2022-11-27T07:06:19.724Z,0.00
2022-11-27T07:07:19.777Z,0.00
2022-11-27T07:08:19.702Z,0.00
2022-11-27T07:09:19.713Z,0.00
2022-11-27T07:10:19.694Z,0.00
2022-11-27T07:11:19.676Z,0.00
2022-11-27T07:12:19.652Z,0.00
2022-11-27T07:13:19.654Z,0.00
2022-11-27T07:14:19.651Z,0.00
2022-11-27T07:15:19.651Z,0.00
2022-11-27T07:16:19.662Z,0.00
2022-11-27T07:17:19.603Z,0.00
2022-11-27T07:18:19.575Z,0.00
2022-11-27T07:19:20.494Z,0.00
2022-11-27T07:20:19.568Z,0.00
2022-11-27T07:21:19.564Z,0.00
2022-11-27T07:22:19.545Z,0.00
2022-11-27T07:23:19.533Z,0.00
2022-11-27T07:24:19.524Z,0.00
2022-11-27T07:25:19.510Z,0.00
2022-11-27T07:26:19.494Z,5.62
2022-11-27T07:27:19.494Z,5.62
2022-11-27T07:28:19.497Z,5.62
2022-11-27T07:29:19.473Z,5.62
2022-11-27T07:30:19.439Z,5.62
2022-11-27T07:31:19.559Z,5.62
2022-11-27T07:32:19.419Z,5.62
2022-11-27T07:33:19.415Z,5.62
2022-11-27T07:34:21.631Z,5.62
2022-11-27T07:35:19.422Z,5.62
2022-11-27T07:36:19.367Z,5.62
2022-11-27T07:37:19.367Z,5.62
2022-11-27T07:38:19.369Z,5.62
2022-11-27T07:39:33.762Z,5.62
2022-11-27T07:40:20.351Z,5.62
2022-11-27T07:41:19.325Z,5.62
2022-11-27T07:43:20.303Z,5.62
2022-11-27T07:44:19.275Z,5.62
2022-11-27T07:45:19.296Z,5.62
2022-11-27T07:46:19.343Z,5.62
2022-11-27T07:47:19.260Z,5.62
2022-11-27T07:48:19.241Z,5.62
2022-11-27T07:49:19.250Z,5.62
2022-11-27T07:50:19.222Z,5.62
2022-11-27T07:51:19.217Z,5.62
2022-11-27T07:52:19.184Z,5.62
2022-11-27T07:53:19.182Z,5.62
2022-11-27T07:54:19.155Z,5.62
2022-11-27T07:55:19.164Z,5.62
2022-11-27T07:56:19.129Z,5.62
2022-11-27T07:57:19.138Z,5.62
2022-11-27T07:58:19.105Z,5.62
2022-11-27T07:59:19.109Z,5.62
2022-11-27T08:00:19.097Z,11.25
2022-11-27T08:01:19.173Z,11.25
2022-11-27T08:02:19.066Z,11.25
2022-11-27T08:03:19.061Z,11.25
2022-11-27T08:04:19.094Z,11.25
2022-11-27T08:05:19.155Z,11.25
2022-11-27T08:06:19.021Z,11.25
2022-11-27T08:07:19.069Z,11.25
2022-11-27T08:08:18.997Z,11.25
2022-11-27T08:09:18.994Z,11.25
2022-11-27T08:10:18.971Z,16.88
2022-11-27T08:11:18.996Z,16.88
2022-11-27T08:12:18.964Z,16.88
2022-11-27T08:13:18.943Z,16.88
2022-11-27T08:14:18.916Z,16.88
2022-11-27T08:15:18.918Z,16.88
2022-11-27T08:16:18.967Z,16.88
2022-11-27T08:17:18.903Z,16.88
2022-11-27T08:18:18.868Z,22.50
2022-11-27T08:19:18.888Z,22.50
2022-11-27T08:20:18.852Z,22.50
2022-11-27T08:21:18.856Z,22.50
2022-11-27T08:22:18.856Z,22.50
2022-11-27T08:23:18.826Z,22.50
2022-11-27T08:24:18.807Z,22.50
2022-11-27T08:25:18.819Z,22.50
2022-11-27T08:26:18.794Z,22.50
2022-11-27T08:27:18.815Z,22.50
2022-11-27T08:28:18.765Z,22.50
2022-11-27T08:29:18.764Z,22.50
2022-11-27T08:30:18.743Z,22.50
2022-11-27T08:31:18.820Z,22.50
2022-11-27T08:32:18.744Z,22.50
2022-11-27T08:33:18.752Z,22.50
2022-11-27T08:34:18.691Z,22.50
2022-11-27T08:35:18.693Z,22.50
2022-11-27T08:36:18.740Z,22.50
2022-11-27T08:37:18.672Z,22.50
2022-11-27T08:38:18.657Z,22.50
2022-11-27T08:39:18.666Z,22.50
2022-11-27T08:40:18.624Z,22.50
2022-11-27T08:41:18.629Z,22.50
2022-11-27T08:42:18.606Z,22.50
2022-11-27T08:43:18.621Z,22.50
2022-11-27T08:44:18.599Z,22.50
2022-11-27T08:45:18.581Z,22.50
2022-11-27T08:46:18.702Z,22.50
2022-11-27T08:47:18.553Z,22.50
2022-11-27T08:48:18.548Z,22.50
2022-11-27T08:49:18.521Z,22.50
2022-11-27T08:50:18.546Z,22.50
2022-11-27T08:51:18.515Z,22.50
2022-11-27T08:52:18.510Z,22.50
2022-11-27T08:53:18.473Z,16.88
2022-11-27T08:54:18.522Z,16.88
2022-11-27T08:55:18.472Z,16.88
2022-11-27T08:56:18.462Z,16.88
2022-11-27T08:57:18.429Z,16.88
2022-11-27T08:58:18.441Z,16.88
2022-11-27T08:59:18.402Z,16.88
2022-11-27T09:00:19.779Z,16.88
2022-11-27T09:01:18.452Z,16.88
2022-11-27T09:02:18.439Z,16.88
2022-11-27T09:03:18.370Z,16.88
2022-11-27T09:04:18.401Z,16.88
2022-11-27T09:05:18.372Z,16.88
2022-11-27T09:06:18.340Z,16.88
2022-11-27T09:07:18.370Z,16.88
2022-11-27T09:08:18.314Z,16.88
2022-11-27T09:09:18.296Z,16.88
2022-11-27T09:10:18.307Z,16.88
2022-11-27T09:11:18.303Z,16.88
2022-11-27T09:12:18.279Z,16.88
2022-11-27T09:13:18.253Z,16.88
2022-11-27T09:14:18.243Z,16.88
2022-11-27T09:15:18.220Z,16.88
2022-11-27T09:16:18.258Z,16.88
2022-11-27T09:17:18.220Z,16.88
2022-11-27T09:18:18.196Z,16.88
2022-11-27T09:19:18.180Z,16.88
2022-11-27T09:20:18.175Z,16.88
2022-11-27T09:21:18.179Z,16.88
2022-11-27T09:22:18.184Z,16.88
2022-11-27T09:23:18.130Z,16.88
2022-11-27T09:24:18.139Z,16.88
2022-11-27T09:25:18.093Z,16.88
2022-11-27T09:26:18.129Z,16.88
2022-11-27T09:27:18.109Z,16.88
2022-11-27T09:28:18.099Z,16.88
2022-11-27T09:29:18.077Z,16.88
2022-11-27T09:30:18.125Z,16.88
2022-11-27T09:31:18.054Z,16.88
2022-11-27T09:32:18.088Z,16.88
2022-11-27T09:33:18.030Z,16.88
2022-11-27T09:34:18.040Z,16.88
2022-11-27T09:35:18.236Z,22.50
2022-11-27T09:36:17.997Z,22.50
2022-11-27T09:37:17.968Z,22.50
2022-11-27T09:38:17.991Z,22.50
2022-11-27T09:39:17.954Z,22.50
2022-11-27T09:40:17.944Z,22.50
2022-11-27T09:41:17.938Z,28.12
2022-11-27T09:42:17.917Z,28.12
2022-11-27T09:43:17.891Z,28.12
2022-11-27T09:44:17.916Z,33.75
2022-11-27T09:45:17.887Z,33.75
2022-11-27T09:46:17.988Z,33.75
2022-11-27T09:47:17.853Z,33.75
2022-11-27T09:48:17.855Z,33.75
2022-11-27T09:49:17.829Z,33.75
2022-11-27T09:50:17.855Z,33.75
2022-11-27T09:51:17.817Z,33.75
2022-11-27T09:52:17.850Z,33.75
2022-11-27T09:53:17.777Z,28.12
2022-11-27T09:54:17.783Z,28.12
2022-11-27T09:55:17.782Z,28.12
2022-11-27T09:56:17.761Z,28.12
2022-11-27T09:57:17.729Z,28.12
2022-11-27T09:58:17.736Z,28.12
2022-11-27T09:59:17.709Z,28.12
2022-11-27T10:00:17.726Z,28.12
2022-11-27T10:01:17.746Z,28.12
2022-11-27T10:02:17.815Z,28.12
2022-11-27T10:03:17.779Z,28.12
2022-11-27T10:04:17.674Z,28.12
2022-11-27T10:05:18.055Z,28.12
2022-11-27T10:06:17.636Z,28.12
2022-11-27T10:07:17.641Z,28.12
2022-11-27T10:08:17.630Z,33.75
2022-11-27T10:09:17.587Z,33.75
2022-11-27T10:10:17.608Z,39.38
2022-11-27T10:11:17.566Z,39.38
2022-11-27T10:12:17.570Z,39.38
2022-11-27T10:13:17.566Z,39.38
2022-11-27T10:14:17.587Z,39.38
2022-11-27T10:15:17.529Z,39.38
2022-11-27T10:16:17.531Z,39.38
2022-11-27T10:17:17.499Z,39.38
2022-11-27T10:18:17.511Z,45.00
2022-11-27T10:19:17.468Z,45.00
2022-11-27T10:20:17.469Z,45.00
2022-11-27T10:21:17.458Z,45.00
2022-11-27T10:22:20.939Z,45.00
2022-11-27T10:23:17.418Z,45.00
2022-11-27T10:24:17.428Z,45.00
2022-11-27T10:25:17.407Z,45.00
2022-11-27T10:26:17.438Z,45.00
2022-11-27T10:27:17.378Z,45.00
2022-11-27T10:28:17.392Z,45.00
2022-11-27T10:29:17.369Z,45.00
2022-11-27T10:30:17.374Z,45.00
2022-11-27T10:31:17.407Z,50.62
2022-11-27T10:32:46.609Z,50.62
2022-11-27T10:33:18.328Z,50.62
2022-11-27T10:34:17.355Z,50.62
2022-11-27T10:35:17.303Z,45.00
2022-11-27T10:36:17.300Z,45.00
2022-11-27T10:37:17.310Z,45.00
2022-11-27T10:38:17.264Z,45.00
2022-11-27T10:39:17.246Z,45.00
2022-11-27T10:40:17.241Z,45.00
2022-11-27T10:41:47.747Z,45.00
2022-11-27T10:42:18.243Z,45.00
2022-11-27T10:43:17.185Z,45.00
2022-11-27T10:44:17.193Z,45.00
2022-11-27T10:45:17.169Z,45.00
2022-11-27T10:46:17.249Z,45.00
2022-11-27T10:47:17.163Z,45.00
2022-11-27T10:48:17.158Z,45.00
2022-11-27T10:49:17.128Z,45.00
2022-11-27T10:50:17.126Z,45.00
2022-11-27T10:51:17.140Z,45.00
2022-11-27T10:52:17.101Z,39.38
2022-11-27T10:53:17.092Z,39.38
2022-11-27T10:54:17.075Z,39.38
2022-11-27T10:55:17.066Z,39.38
2022-11-27T10:56:17.050Z,39.38
2022-11-27T10:57:17.048Z,39.38
2022-11-27T10:58:17.076Z,39.38
2022-11-27T10:59:17.008Z,39.38
2022-11-27T11:00:17.005Z,39.38
2022-11-27T11:01:17.030Z,39.38
2022-11-27T11:02:17.078Z,39.38
2022-11-27T11:03:16.959Z,39.38
2022-11-27T11:04:37.042Z,39.38
2022-11-27T11:05:35.070Z,39.38
2022-11-27T11:06:21.477Z,39.38
2022-11-27T11:07:16.970Z,39.38
2022-11-27T11:08:16.933Z,39.38
2022-11-27T11:09:16.917Z,39.38
2022-11-27T11:10:16.898Z,33.75
2022-11-27T11:11:16.862Z,33.75
2022-11-27T11:12:16.882Z,33.75
2022-11-27T11:13:16.846Z,33.75
2022-11-27T11:14:16.872Z,33.75
2022-11-27T11:15:16.816Z,33.75
2022-11-27T11:16:20.545Z,33.75
2022-11-27T11:17:17.908Z,33.75
2022-11-27T11:18:16.821Z,33.75
2022-11-27T11:19:16.780Z,33.75
2022-11-27T11:20:16.794Z,33.75
2022-11-27T11:21:16.751Z,33.75
2022-11-27T11:22:16.748Z,33.75
2022-11-27T11:23:16.720Z,33.75
2022-11-27T11:24:16.735Z,33.75
2022-11-27T11:25:16.712Z,33.75
2022-11-27T11:26:16.728Z,33.75
2022-11-27T11:27:16.695Z,33.75
2022-11-27T11:28:16.681Z,33.75
2022-11-27T11:29:16.662Z,33.75
2022-11-27T11:30:16.715Z,33.75
2022-11-27T11:31:16.635Z,33.75
2022-11-27T11:32:16.692Z,33.75
2022-11-27T11:33:16.603Z,33.75
2022-11-27T11:34:16.611Z,33.75
2022-11-27T11:35:16.621Z,33.75
2022-11-27T11:36:16.586Z,33.75
2022-11-27T11:37:16.573Z,33.75
2022-11-27T11:38:16.573Z,33.75
2022-11-27T11:39:16.542Z,33.75
2022-11-27T11:40:16.770Z,33.75
2022-11-27T11:41:16.527Z,33.75
2022-11-27T11:42:16.535Z,33.75
2022-11-27T11:43:16.495Z,33.75
2022-11-27T11:44:16.494Z,33.75
2022-11-27T11:45:16.477Z,28.12
2022-11-27T11:46:16.523Z,28.12
2022-11-27T11:47:16.455Z,28.12
2022-11-27T11:48:16.467Z,28.12
2022-11-27T11:49:16.427Z,28.12
2022-11-27T11:50:16.502Z,28.12
2022-11-27T11:51:16.424Z,22.50
2022-11-27T11:52:16.397Z,22.50
2022-11-27T11:53:16.382Z,22.50
2022-11-27T11:54:16.379Z,22.50
2022-11-27T11:55:16.359Z,22.50
2022-11-27T11:56:16.367Z,22.50
2022-11-27T11:57:16.321Z,22.50
2022-11-27T11:58:16.340Z,22.50
2022-11-27T11:59:16.300Z,22.50
2022-11-27T12:00:16.313Z,22.50
2022-11-27T12:01:26.959Z,22.50
2022-11-27T12:02:17.356Z,22.50
2022-11-27T12:03:16.265Z,22.50
2022-11-27T12:04:16.318Z,22.50
2022-11-27T12:05:16.235Z,22.50
2022-11-27T12:06:16.234Z,22.50
2022-11-27T12:07:16.316Z,22.50
2022-11-27T12:08:16.210Z,22.50
2022-11-27T12:09:16.207Z,22.50
2022-11-27T12:10:16.214Z,22.50
2022-11-27T12:11:16.177Z,22.50
2022-11-27T12:12:16.184Z,22.50
2022-11-27T12:13:16.204Z,22.50
2022-11-27T12:14:16.149Z,22.50
2022-11-27T12:15:16.117Z,28.12
2022-11-27T12:16:16.176Z,28.12
2022-11-27T12:17:16.095Z,28.12
2022-11-27T12:18:16.117Z,28.12
2022-11-27T12:19:16.064Z,28.12
2022-11-27T12:20:16.075Z,28.12
2022-11-27T12:21:16.044Z,28.12
2022-11-27T12:22:16.045Z,28.12
2022-11-27T12:23:16.025Z,28.12
2022-11-27T12:24:16.051Z,28.12
2022-11-27T12:25:16.023Z,28.12
2022-11-27T12:26:16.027Z,28.12
2022-11-27T12:27:15.978Z,28.12
2022-11-27T12:28:15.992Z,28.12
2022-11-27T12:29:15.967Z,28.12
2022-11-27T12:30:15.966Z,33.75
2022-11-27T12:31:16.006Z,33.75
2022-11-27T12:32:15.941Z,33.75
2022-11-27T12:33:15.906Z,33.75
2022-11-27T12:34:15.912Z,33.75
2022-11-27T12:35:15.896Z,33.75
2022-11-27T12:36:15.895Z,33.75
2022-11-27T12:37:15.872Z,33.75
2022-11-27T12:38:15.867Z,33.75
2022-11-27T12:39:15.826Z,33.75
2022-11-27T12:40:15.862Z,33.75
2022-11-27T12:41:15.814Z,28.12
2022-11-27T12:42:21.632Z,28.12
2022-11-27T12:43:16.813Z,28.12
2022-11-27T12:44:15.815Z,28.12
2022-11-27T12:45:15.769Z,28.12
2022-11-27T12:46:15.815Z,22.50
2022-11-27T12:47:15.750Z,22.50
2022-11-27T12:48:15.753Z,22.50
2022-11-27T12:49:15.719Z,22.50
2022-11-27T12:50:15.764Z,22.50
2022-11-27T12:51:15.714Z,22.50
2022-11-27T12:52:15.717Z,16.88
2022-11-27T12:53:18.912Z,16.88
2022-11-27T12:54:16.664Z,16.88
2022-11-27T12:55:15.644Z,16.88
2022-11-27T12:56:15.651Z,16.88
2022-11-27T12:57:15.646Z,16.88
2022-11-27T12:58:15.630Z,11.25
2022-11-27T12:59:15.607Z,11.25
2022-11-27T13:00:15.616Z,11.25
2022-11-27T13:01:15.699Z,11.25
2022-11-27T13:02:15.636Z,11.25
2022-11-27T13:03:15.582Z,11.25
2022-11-27T13:04:15.548Z,11.25
2022-11-27T13:05:15.558Z,11.25
2022-11-27T13:06:15.537Z,11.25
2022-11-27T13:07:15.564Z,11.25
2022-11-27T13:08:15.516Z,11.25
2022-11-27T13:09:15.497Z,11.25